Wednesday, July 23, 2014, 4:20 PM EDT

KESN, Easton / Newman Field

Location: Easton, MD, United States Lat: 38.8
Local Time: 4:20 PM EDT (20:20 GMT) Lon: -76.067
Time Zone: US/Eastern Elev: 72 ft

Show me the last for .
Show Decoded

2014-07-23 15:50 METAR KESN 231950Z 22010KT 10SM SCT100 33/23 A2991 =
2014-07-23 14:51 METAR KESN 231851Z 22011KT 10SM FEW100 33/23 A2993 =
2014-07-23 13:45 METAR KESN 231745Z 24010KT 10SM FEW100 32/23 A2996 =
2014-07-23 12:45 METAR KESN 231645Z 23009KT 10SM SKC 32/23 A2997 =
2014-07-23 11:45 METAR KESN 231545Z 24008KT 10SM SKC 30/23 A3000 =
2014-07-23 10:45 METAR KESN 231445Z 20009KT 10SM SCT060 30/24 A3002 =
2014-07-23 09:50 METAR KESN 231350Z 22007KT 10SM FEW015 SCT060 29/24 A3004 =
2014-07-23 08:53 METAR KESN 231253Z 22006KT 10SM FEW010 27/27 A3005 =
2014-07-23 08:15 METAR KESN 231215Z 22005KT 10SM SCT008 26/26 A3005 =
2014-07-23 06:53 METAR KESN 231053Z 19003KT 10SM FEW008 24/24 A3004 =
2014-07-23 06:25 METAR KESN 231025Z AUTO 00000KT 10SM CLR 23/23 A3004 RMK AO2 T02330233 =
2014-07-23 06:06 METAR KESN 231006Z AUTO 00000KT 10SM CLR 23/23 A3004 RMK AO2 T02320232 =
2014-07-23 05:53 METAR KESN 230953Z 00000KT 10SM SKC 23/23 A3004 =
2014-07-23 05:46 METAR KESN 230946Z AUTO 00000KT 10SM CLR 23/23 A3005 RMK AO2 T02330233 =
2014-07-23 05:26 METAR KESN 230926Z AUTO 00000KT 10SM CLR 23/23 A3005 =
2014-07-23 05:24 METAR KESN 230926Z AUTO 00000KT 10SM CLR 23/23 A3005 RMK AO2 T02300230 =
2014-07-23 05:06 METAR KESN 230906Z AUTO 00000KT 10SM SCT013 23/23 A3005 RMK AO2 T02300230 =
2014-07-23 04:46 METAR KESN 230846Z AUTO 00000KT 10SM CLR 23/23 A3006 RMK AO2 T02270227 =
2014-07-23 04:26 METAR KESN 230826Z AUTO 00000KT 10SM CLR 23/23 A3006 =
2014-07-23 04:22 METAR KESN 230826Z AUTO 00000KT 10SM CLR 23/23 A3006 RMK AO2 T02260226 =
2014-07-23 04:06 METAR KESN 230806Z AUTO 00000KT 10SM CLR 23/23 A3007 RMK AO2 T02260226 =
2014-07-23 03:26 METAR KESN 230726Z AUTO 00000KT 10SM CLR 23/23 A3008 =
2014-07-23 03:24 METAR KESN 230726Z AUTO 00000KT 10SM CLR 23/23 A3008 RMK AO2 T02270227 =
2014-07-23 03:06 METAR KESN 230706Z AUTO 00000KT 10SM CLR 23/23 A3008 =
2014-07-23 03:05 METAR KESN 230706Z AUTO 00000KT 10SM CLR 23/23 A3008 RMK AO2 T02260226 =
2014-07-23 02:46 METAR KESN 230646Z AUTO 00000KT 10SM CLR 23/23 A3008 RMK AO2 T02260226 =
2014-07-23 02:26 METAR KESN 230626Z AUTO 00000KT 10SM CLR 23/22 A3009 =
2014-07-23 02:23 METAR KESN 230626Z AUTO 00000KT 10SM CLR 23/22 A3009 RMK AO2 T02260221 =
2014-07-23 02:06 METAR KESN 230606Z AUTO 00000KT 10SM CLR 23/21 A3010 RMK AO2 T02290208 =
2014-07-23 01:46 METAR KESN 230546Z AUTO 00000KT 10SM CLR 23/20 A3010 RMK AO2 T02280204 =
2014-07-23 01:26 METAR KESN 230526Z AUTO 00000KT 10SM CLR 23/20 A3011 =
2014-07-23 01:25 METAR KESN 230526Z AUTO 00000KT 10SM CLR 23/20 A3011 RMK AO2 T02320200 =
2014-07-23 01:06 METAR KESN 230506Z AUTO 19003KT 10SM CLR 24/20 A3011 RMK AO2 T02350197 =
2014-07-23 00:46 METAR KESN 230446Z AUTO 20004KT 10SM CLR 24/19 A3011 RMK AO2 T02360193 =
2014-07-23 00:24 METAR KESN 230426Z AUTO 00000KT 10SM CLR 24/19 A3012 RMK AO2 T02370189 =
2014-07-23 00:22 METAR KESN 230426Z AUTO 00000KT 10SM CLR 24/19 A3012 =
2014-07-23 00:06 METAR KESN 230406Z AUTO 00000KT 10SM CLR 24/19 A3012 RMK AO2 T02360187 =
2014-07-22 23:26 METAR KESN 230326Z AUTO 00000KT 10SM CLR 24/19 A3013 =
2014-07-22 23:23 METAR KESN 230326Z AUTO 00000KT 10SM CLR 24/19 A3013 RMK AO2 T02390187 =
2014-07-22 23:05 METAR KESN 230305Z AUTO 00000KT 10SM CLR 24/19 A3013 RMK AO2 T02410185 =
2014-07-22 22:45 METAR KESN 230245Z AUTO 20003KT 10SM CLR 25/19 A3013 RMK AO2 T02460185 =
2014-07-22 20:55 METAR KESN 230055Z 18003KT 10SM SCT100 27/19 A3013 =
2014-07-22 19:45 METAR KESN 222345Z 20008KT 10SM SCT100 29/20 A3013 =
2014-07-22 18:00 METAR KESN 222200Z 20004KT 10SM BKN040 30/20 A3014 =
2014-07-22 16:45 METAR KESN 222045Z 20004KT 10SM SCT040 BKN060 31/20 A3015 =

Support USWX by starting your Amazon purchase here.